This is the latest recevied weather packets stored in our database for station/object EB2GLU-13. If no packets are shown the sender has not sent any weather packets the latest 10 day(s).
| Time | Temp. | Humidity | Pressure | Rain* | Wind** | Luminosity | Snow |
|---|---|---|---|---|---|---|---|
| 1787470146 | 27.78° C | 66% | 1007.2 hPa | 0 mm | - | - | - |
| 1787469396 | 27.22° C | 68% | 1007.3 hPa | 0 mm | - | - | - |
| 1787468646 | 26.67° C | 69% | 1007.3 hPa | 0 mm | - | - | - |
| 1787467896 | 26.11° C | 71% | 1007.1 hPa | 0 mm | - | - | - |
| 1787467146 | 25.56° C | 71% | 1007 hPa | 0 mm | - | - | - |
| 1787466396 | 24.44° C | 74% | 1007.2 hPa | 0 mm | - | - | - |
| 1787465646 | 24.44° C | 75% | 1007.2 hPa | 0 mm | - | - | - |
| 1787464896 | 24.44° C | 75% | 1006.9 hPa | 0 mm | - | - | - |
| 1787464146 | 24.44° C | 75% | 1006.9 hPa | 0 mm | - | - | - |
| 1787463396 | 23.89° C | 76% | 1006.8 hPa | 0 mm | - | - | - |
| 1787462646 | 23.89° C | 76% | 1006.5 hPa | 0 mm | - | - | - |
| 1787461896 | 23.89° C | 75% | 1006.4 hPa | 0 mm | - | - | - |
| 1787461146 | 23.89° C | 76% | 1006.2 hPa | 0 mm | - | - | - |
| 1787460396 | 24.44° C | 75% | 1006.3 hPa | 0 mm | - | - | - |
| 1787459646 | 23.89° C | 76% | 1006.1 hPa | 0 mm | - | - | - |
| 1787458896 | 23.33° C | 78% | 1006 hPa | 0 mm | - | - | - |
| 1787458146 | 22.78° C | 79% | 1006.2 hPa | 0 mm | - | - | - |
| 1787457396 | 20.56° C | 88% | 1006.1 hPa | 0 mm | - | - | - |
| 1787456646 | 18.89° C | 92% | 1006.1 hPa | 0 mm | - | - | - |
| 1787455896 | 18.89° C | 93% | 1005.9 hPa | 0 mm | - | - | - |
| 1787455146 | 18.33° C | 93% | 1006.3 hPa | 0 mm | - | - | - |
| 1787454396 | 18.33° C | 93% | 1006.1 hPa | 0 mm | - | - | - |
| 1787453646 | 18.33° C | 93% | 1006.3 hPa | 0 mm | - | - | - |
| 1787452896 | 18.33° C | 93% | 1006.3 hPa | 0 mm | - | - | - |
| 1787452146 | 18.33° C | 93% | 1006.3 hPa | 0 mm | - | - | - |
* Rain latest hour (hover to see other rain measurements)
** Current wind speed in m/s (hover to see current wind gust speed)